Polfoss — V2PN7 — position and weather

sailwx.info

Track history (hours):
 
Tides and Currents Weather Stations Pressure Air Temp Water Temp Dewpoint Dewpoint Depression Visibility Wind Speed Wind Dir Waves Ship Positions

Polfoss

Last reported at 2015-Apr-01 17:11 UTC. Time now 2015-Apr-01 21:18 UTC.
Position N 64°48' E 011°05'.

Length 82 m; draft 5.9 m.

Type: Cargo ship. MMSI: 305081000.

Date/timePositionNaut miles runAvg speedWind from/ knotsBaromVisibWave heightAir tempDewpointWater temp
2015-Apr-01 17:11N 64°48' E 011°05'913.4
2015-Apr-01 16:31N 64°54' E 011°20'9313.3
2015-Apr-01 09:32N 66°18' E 012°56'2713.5
2015-Apr-01 07:33N 66°44' E 013°11'1313.4
2015-Apr-01 06:33N 66°55' E 013°29'1212.4
2015-Apr-01 05:33N 67°04' E 013°53'1413.5
2015-Apr-01 04:34N 67°15' E 014°11'1312.9
2015-Apr-01 03:33N 67°27' E 014°25'1514.3
2015-Apr-01 02:32N 67°41' E 014°12'1414.4
2015-Apr-01 01:34N 67°54' E 014°01'1413.5
2015-Apr-01 00:33N 68°07' E 013°50'0 0.1
2015-Mar-31 23:24N 68°07' E 013°50'0 0.0
2015-Mar-31 22:28N 68°07' E 013°50'143 4.3
2015-Mar-30 13:34N 69°38' E 018°57'0 0.0
2015-Mar-30 12:33N 69°38' E 018°57'0 0.0
2015-Mar-30 11:33N 69°38' E 018°57'0 0.0
2015-Mar-30 10:33N 69°38' E 018°57'0 0.0
2015-Mar-30 09:34N 69°38' E 018°57'0 0.0
2015-Mar-30 08:33N 69°38' E 018°57'0 0.0
2015-Mar-30 07:33N 69°38' E 018°57'0 0.0
2015-Mar-30 06:34N 69°38' E 018°57'0 0.0
2015-Mar-30 05:33N 69°38' E 018°57'0 0.0
2015-Mar-30 04:33N 69°38' E 018°57'0 0.0
2015-Mar-30 03:33N 69°38' E 018°57'0 0.0
2015-Mar-30 02:33N 69°38' E 018°57'0 0.0
2015-Mar-30 01:33N 69°38' E 018°57'0 0.0
2015-Mar-30 00:33N 69°38' E 018°57'0 0.0
2015-Mar-29 23:33N 69°38' E 018°57'0 0.0
2015-Mar-29 22:33N 69°38' E 018°57'0 0.0
2015-Mar-29 21:33N 69°38' E 018°57'0 0.0
2015-Mar-29 20:33N 69°38' E 018°57'0 0.0
2015-Mar-29 19:33N 69°38' E 018°57'0 0.0
2015-Mar-29 18:33N 69°38' E 018°57'0 0.0
2015-Mar-29 17:33N 69°38' E 018°57'0 0.0
2015-Mar-29 16:33N 69°38' E 018°57'0 0.0
2015-Mar-29 15:33N 69°38' E 018°57'0 0.0
2015-Mar-29 14:33N 69°38' E 018°57'2 1.9
2015-Mar-29 13:33N 69°39' E 018°58'0 0.0
2015-Mar-29 12:33N 69°39' E 018°58'0 0.0
2015-Mar-29 11:33N 69°39' E 018°58'0 0.0
2015-Mar-29 10:33N 69°39' E 018°58'0 0.0
2015-Mar-29 09:33N 69°39' E 018°58'0 0.0
2015-Mar-29 08:32N 69°39' E 018°58'0 0.0
2015-Mar-29 07:33N 69°39' E 018°58'0 0.0
2015-Mar-29 06:33N 69°39' E 018°58'0 0.0
2015-Mar-29 05:33N 69°39' E 018°58'0 0.0
2015-Mar-29 04:33N 69°39' E 018°58'0 0.0
2015-Mar-29 03:33N 69°39' E 018°58'0 0.0
2015-Mar-29 02:33N 69°39' E 018°58'0 0.0
2015-Mar-29 01:33N 69°39' E 018°58'8112.7
2015-Mar-28 19:10N 70°26' E 022°13'1014.2
2015-Mar-28 18:27N 70°29' E 022°42'1213.5
2015-Mar-28 17:33N 70°36' E 023°13'2013.9
2015-Mar-28 16:08N 70°50' E 023°54'9 0.2
2015-Mar-26 12:28N 70°43' E 023°35'4 4.0
2015-Mar-26 11:33N 70°40' E 023°40'2 2.3
2015-Mar-26 10:33N 70°38' E 023°36'1 0.9
2015-Mar-26 09:34N 70°38' E 023°38'0 0.0
2015-Mar-26 08:34N 70°38' E 023°38'0 0.0
2015-Mar-26 07:33N 70°38' E 023°38'107 8.7
2015-Mar-25 19:13N 69°45' E 019°04'6 8.7
2015-Mar-25 18:33N 69°39' E 018°58'0 0.0
2015-Mar-25 17:33N 69°39' E 018°58'0 0.0
2015-Mar-25 16:33N 69°39' E 018°58'0 0.0
2015-Mar-25 15:33N 69°39' E 018°58'1 0.6
2015-Mar-25 14:33N 69°40' E 018°59'1 0.6
2015-Mar-25 13:28N 69°41' E 018°59'1 0.7
2015-Mar-25 12:31N 69°40' E 018°59'120 7.3
2015-Mar-24 20:06N 68°13' E 015°10'814.0
2015-Mar-24 19:32N 68°15' E 015°31'10 2.1
2015-Mar-24 14:33N 68°07' E 015°14'1414.4
2015-Mar-24 13:33N 67°57' E 014°45'1814.4
2015-Mar-24 12:18N 67°43' E 014°16'1114.5
2015-Mar-24 11:33N 67°32' E 014°21'1313.3
2015-Mar-24 10:33N 67°19' E 014°18'1414.2
2015-Mar-24 09:34N 67°07' E 013°59'1413.7
2015-Mar-24 08:33N 66°58' E 013°32'1412.5
2015-Mar-24 07:28N 66°46' E 013°14'1612.4
2015-Mar-24 06:11N 66°32' E 012°57'913.3
2015-Mar-24 05:32N 66°23' E 012°59'1713.6
2015-Mar-24 04:19N 66°07' E 012°46'5412.9
2015-Mar-24 00:08N 65°17' E 011°58'813.8
2015-Mar-23 23:32N 65°10' E 011°50'1313.5
2015-Mar-23 22:34N 64°58' E 011°34'1414.1
2015-Mar-23 21:33N 64°49' E 011°09'8111.6
2015-Mar-23 14:32N 63°46' E 009°10'10 2.4
2015-Mar-23 10:25N 63°41' E 009°30'  
Track history (hours):
 
Tides and Currents Weather Stations Pressure Air Temp Water Temp Dewpoint Dewpoint Depression Visibility Wind Speed Wind Dir Waves Ship Positions

Polfoss

Last reported at 2015-Apr-01 17:11 UTC. Time now 2015-Apr-01 21:18 UTC.
Position N 64°48' E 011°05'.

Length 82 m; draft 5.9 m.

Type: Cargo ship. MMSI: 305081000.

Date/timePositionNaut miles runAvg speedWind from/ knotsBaromVisibWave heightAir tempDewpointWater temp
2015-Apr-01 17:11N 64°48' E 011°05'913.4
2015-Apr-01 16:31N 64°54' E 011°20'9313.3
2015-Apr-01 09:32N 66°18' E 012°56'2713.5
2015-Apr-01 07:33N 66°44' E 013°11'1313.4
2015-Apr-01 06:33N 66°55' E 013°29'1212.4
2015-Apr-01 05:33N 67°04' E 013°53'1413.5
2015-Apr-01 04:34N 67°15' E 014°11'1312.9
2015-Apr-01 03:33N 67°27' E 014°25'1514.3
2015-Apr-01 02:32N 67°41' E 014°12'1414.4
2015-Apr-01 01:34N 67°54' E 014°01'1413.5
2015-Apr-01 00:33N 68°07' E 013°50'0 0.1
2015-Mar-31 23:24N 68°07' E 013°50'0 0.0
2015-Mar-31 22:28N 68°07' E 013°50'143 4.3
2015-Mar-30 13:34N 69°38' E 018°57'0 0.0
2015-Mar-30 12:33N 69°38' E 018°57'0 0.0
2015-Mar-30 11:33N 69°38' E 018°57'0 0.0
2015-Mar-30 10:33N 69°38' E 018°57'0 0.0
2015-Mar-30 09:34N 69°38' E 018°57'0 0.0
2015-Mar-30 08:33N 69°38' E 018°57'0 0.0
2015-Mar-30 07:33N 69°38' E 018°57'0 0.0
2015-Mar-30 06:34N 69°38' E 018°57'0 0.0
2015-Mar-30 05:33N 69°38' E 018°57'0 0.0
2015-Mar-30 04:33N 69°38' E 018°57'0 0.0
2015-Mar-30 03:33N 69°38' E 018°57'0 0.0
2015-Mar-30 02:33N 69°38' E 018°57'0 0.0
2015-Mar-30 01:33N 69°38' E 018°57'0 0.0
2015-Mar-30 00:33N 69°38' E 018°57'0 0.0
2015-Mar-29 23:33N 69°38' E 018°57'0 0.0
2015-Mar-29 22:33N 69°38' E 018°57'0 0.0
2015-Mar-29 21:33N 69°38' E 018°57'0 0.0
2015-Mar-29 20:33N 69°38' E 018°57'0 0.0
2015-Mar-29 19:33N 69°38' E 018°57'0 0.0
2015-Mar-29 18:33N 69°38' E 018°57'0 0.0
2015-Mar-29 17:33N 69°38' E 018°57'0 0.0
2015-Mar-29 16:33N 69°38' E 018°57'0 0.0
2015-Mar-29 15:33N 69°38' E 018°57'0 0.0
2015-Mar-29 14:33N 69°38' E 018°57'2 1.9
2015-Mar-29 13:33N 69°39' E 018°58'0 0.0
2015-Mar-29 12:33N 69°39' E 018°58'0 0.0
2015-Mar-29 11:33N 69°39' E 018°58'0 0.0
2015-Mar-29 10:33N 69°39' E 018°58'0 0.0
2015-Mar-29 09:33N 69°39' E 018°58'0 0.0
2015-Mar-29 08:32N 69°39' E 018°58'0 0.0
2015-Mar-29 07:33N 69°39' E 018°58'0 0.0
2015-Mar-29 06:33N 69°39' E 018°58'0 0.0
2015-Mar-29 05:33N 69°39' E 018°58'0 0.0
2015-Mar-29 04:33N 69°39' E 018°58'0 0.0
2015-Mar-29 03:33N 69°39' E 018°58'0 0.0
2015-Mar-29 02:33N 69°39' E 018°58'0 0.0
2015-Mar-29 01:33N 69°39' E 018°58'8112.7
2015-Mar-28 19:10N 70°26' E 022°13'1014.2
2015-Mar-28 18:27N 70°29' E 022°42'1213.5
2015-Mar-28 17:33N 70°36' E 023°13'2013.9
2015-Mar-28 16:08N 70°50' E 023°54'9 0.2
2015-Mar-26 12:28N 70°43' E 023°35'4 4.0
2015-Mar-26 11:33N 70°40' E 023°40'2 2.3
2015-Mar-26 10:33N 70°38' E 023°36'1 0.9
2015-Mar-26 09:34N 70°38' E 023°38'0 0.0
2015-Mar-26 08:34N 70°38' E 023°38'0 0.0
2015-Mar-26 07:33N 70°38' E 023°38'107 8.7
2015-Mar-25 19:13N 69°45' E 019°04'6 8.7
2015-Mar-25 18:33N 69°39' E 018°58'0 0.0
2015-Mar-25 17:33N 69°39' E 018°58'0 0.0
2015-Mar-25 16:33N 69°39' E 018°58'0 0.0
2015-Mar-25 15:33N 69°39' E 018°58'1 0.6
2015-Mar-25 14:33N 69°40' E 018°59'1 0.6
2015-Mar-25 13:28N 69°41' E 018°59'1 0.7
2015-Mar-25 12:31N 69°40' E 018°59'120 7.3
2015-Mar-24 20:06N 68°13' E 015°10'814.0
2015-Mar-24 19:32N 68°15' E 015°31'10 2.1
2015-Mar-24 14:33N 68°07' E 015°14'1414.4
2015-Mar-24 13:33N 67°57' E 014°45'1814.4
2015-Mar-24 12:18N 67°43' E 014°16'1114.5
2015-Mar-24 11:33N 67°32' E 014°21'1313.3
2015-Mar-24 10:33N 67°19' E 014°18'1414.2
2015-Mar-24 09:34N 67°07' E 013°59'1413.7
2015-Mar-24 08:33N 66°58' E 013°32'1412.5
2015-Mar-24 07:28N 66°46' E 013°14'1612.4
2015-Mar-24 06:11N 66°32' E 012°57'913.3
2015-Mar-24 05:32N 66°23' E 012°59'1713.6
2015-Mar-24 04:19N 66°07' E 012°46'5412.9
2015-Mar-24 00:08N 65°17' E 011°58'813.8
2015-Mar-23 23:32N 65°10' E 011°50'1313.5
2015-Mar-23 22:34N 64°58' E 011°34'1414.1
2015-Mar-23 21:33N 64°49' E 011°09'8111.6
2015-Mar-23 14:32N 63°46' E 009°10'10 2.4
2015-Mar-23 10:25N 63°41' E 009°30'  

Dump ship's entire track history